Time;durP1;ratioP1;P1;durP2;ratioP2;P2;SDS_P1;SDS_P2;PMS_P1;PMS_P2;Temp;Humidity;BMP_temperature;BMP_pressure;BME280_temperature;BME280_humidity;BME280_pressure;Samples;Min_cycle;Max_cycle;Signal;HPM_P1;HPM_P2
2023/09/07 00:01:08;;;;;;;;;;;;;;;;;;5087471;28;20493;-60
2023/09/07 00:03:34;;;;;;;;;;;;;;;;;;5082109;28;20020;-60
2023/09/07 00:06:00;;;;;;;;;;;;;;;;;;5072635;28;19916;-60
2023/09/07 00:08:26;;;;;;;;;;;;;;;;;;5085358;28;20010;-60
2023/09/07 00:10:52;;;;;;;;;;;;;;;;;;5092238;28;19912;-60
2023/09/07 00:13:18;;;;;;;;;;;;;;;;;;5085352;28;19919;-60
2023/09/07 00:15:44;;;;;;;;;;;;;;;;;;5086195;28;20383;-60
2023/09/07 00:18:10;;;;;;;;;;;;;;;;;;5092005;28;19999;-60
2023/09/07 00:20:35;;;;;;;;;;;;;;;;;;5092103;28;20314;-60
2023/09/07 00:23:01;;;;;;;;;;;;;;;;;;5087079;28;19920;-60
2023/09/07 00:25:27;;;;;;;;;;;;;;;;;;5072176;28;19948;-60
2023/09/07 00:27:53;;;;;;;;;;;;;;;;;;5072199;28;19912;-60
2023/09/07 00:30:19;;;;;;;;;;;;;;;;;;5071898;28;19909;-60
2023/09/07 00:32:45;;;;;;;;;;;;;;;;;;5073999;28;19916;-60
2023/09/07 00:35:11;;;;;;;;;;;;;;;;;;5089225;28;19970;-60
2023/09/07 00:37:38;;;;;;;;;;;;;;;;;;5086047;28;19951;-61
2023/09/07 00:40:04;;;;;;;;;;;;;;;;;;5092099;28;19915;-60
2023/09/07 00:42:29;;;;;;;;;;;;;;;;;;5081781;28;20299;-60
2023/09/07 00:44:55;;;;;;;;;;;;;;;;;;5071358;28;20324;-61
2023/09/07 00:47:21;;;;;;;;;;;;;;;;;;5071899;28;20010;-60
2023/09/07 00:49:47;;;;;;;;;;;;;;;;;;5086524;28;19957;-61
2023/09/07 00:52:13;;;;;;;;;;;;;;;;;;5081487;28;19943;-61
2023/09/07 00:54:40;;;;;;;;;;;;;;;;;;5083515;28;20306;-60
2023/09/07 00:57:06;;;;;;;;;;;;;;;;;;5084301;28;19917;-60
2023/09/07 00:59:32;;;;;;;;;;;;;;;;;;5078229;28;19923;-58
2023/09/07 01:01:58;;;;;;;;;;;;;;;;;;5090337;28;19916;-59
2023/09/07 01:04:24;;;;;;;;;;;;;;;;;;5088738;28;20495;-59
2023/09/07 01:06:50;;;;;;;;;;;;;;;;;;5081208;28;19916;-59
2023/09/07 01:09:17;;;;;;;;;;;;;;;;;;5091435;28;20283;-59
2023/09/07 01:11:43;;;;;;;;;;;;;;;;;;5095200;28;20358;-59
2023/09/07 01:14:10;;;;;;;;;;;;;;;;;;5084368;28;19912;-60
2023/09/07 01:16:38;;;;;;;;;;;;;;;;;;5076860;28;19955;-58
2023/09/07 01:19:04;;;;;;;;;;;;;;;;;;5085374;28;19912;-59
2023/09/07 01:21:30;;;;;;;;;;;;;;;;;;5091956;28;19935;-59
2023/09/07 01:23:56;;;;;;;;;;;;;;;;;;5083570;28;19956;-60
2023/09/07 01:26:22;;;;;;;;;;;;;;;;;;5093493;28;19954;-59
2023/09/07 01:28:48;;;;;;;;;;;;;;;;;;5088284;28;20054;-59
2023/09/07 01:31:15;;;;;;;;;;;;;;;;;;5094568;28;19916;-59
2023/09/07 01:33:41;;;;;;;;;;;;;;;;;;5090406;28;19912;-59
2023/09/07 01:36:07;;;;;;;;;;;;;;;;;;5093289;28;20415;-59
2023/09/07 01:38:33;;;;;;;;;;;;;;;;;;5093443;28;19912;-59
2023/09/07 01:40:59;;;;;;;;;;;;;;;;;;5094846;28;19915;-59
2023/09/07 01:43:25;;;;;;;;;;;;;;;;;;5079716;28;20291;-59
2023/09/07 01:45:51;;;;;;;;;;;;;;;;;;5074875;28;19912;-59
2023/09/07 01:48:17;;;;;;;;;;;;;;;;;;5078835;28;19919;-59
2023/09/07 01:50:43;;;;;;;;;;;;;;;;;;5076499;28;20371;-61
2023/09/07 01:53:09;;;;;;;;;;;;;;;;;;5079099;28;20498;-59
2023/09/07 01:55:35;;;;;;;;;;;;;;;;;;5077009;28;20032;-61
2023/09/07 01:58:00;;;;;;;;;;;;;;;;;;5083120;28;20042;-58
2023/09/07 02:00:26;;;;;;;;;;;;;;;;;;5080009;28;19995;-59
2023/09/07 02:02:52;;;;;;;;;;;;;;;;;;5089106;28;19912;-59
2023/09/07 02:05:18;;;;;;;;;;;;;;;;;;5094770;28;19908;-59
2023/09/07 02:07:44;;;;;;;;;;;;;;;;;;5088528;28;20396;-60
2023/09/07 02:10:10;;;;;;;;;;;;;;;;;;5074382;28;19917;-59
2023/09/07 02:12:36;;;;;;;;;;;;;;;;;;5074293;28;20002;-59
2023/09/07 02:15:02;;;;;;;;;;;;;;;;;;5089938;28;20333;-59
2023/09/07 02:17:28;;;;;;;;;;;;;;;;;;5085454;28;19999;-59
2023/09/07 02:19:54;;;;;;;;;;;;;;;;;;5077017;28;19916;-60
2023/09/07 02:22:20;;;;;;;;;;;;;;;;;;5073922;28;19923;-60
2023/09/07 02:24:46;;;;;;;;;;;;;;;;;;5082494;28;19916;-60
2023/09/07 02:27:12;;;;;;;;;;;;;;;;;;5088025;28;20353;-60
2023/09/07 02:29:38;;;;;;;;;;;;;;;;;;5073777;28;20287;-58
2023/09/07 02:32:04;;;;;;;;;;;;;;;;;;5089535;28;20019;-58
2023/09/07 02:34:30;;;;;;;;;;;;;;;;;;5073555;28;19963;-59
2023/09/07 02:36:56;;;;;;;;;;;;;;;;;;5074811;28;19912;-59
2023/09/07 02:39:26;;;;;;;;;;;;;;;;;;5089098;28;19974;-58
2023/09/07 02:41:51;;;;;;;;;;;;;;;;;;5077212;28;20367;-58
2023/09/07 02:44:17;;;;;;;;;;;;;;;;;;5093860;28;19999;-58
2023/09/07 02:46:43;;;;;;;;;;;;;;;;;;5076774;28;19916;-58
2023/09/07 02:49:09;;;;;;;;;;;;;;;;;;5089320;28;20005;-57
2023/09/07 02:51:35;;;;;;;;;;;;;;;;;;5075944;28;19982;-58
2023/09/07 02:54:01;;;;;;;;;;;;;;;;;;5078845;28;20368;-58
2023/09/07 02:56:27;;;;;;;;;;;;;;;;;;5092554;28;19912;-58
2023/09/07 02:58:53;;;;;;;;;;;;;;;;;;5087277;28;20562;-58
2023/09/07 03:01:20;;;;;;;;;;;;;;;;;;5087966;28;19914;-58
2023/09/07 03:03:46;;;;;;;;;;;;;;;;;;5092048;28;20007;-57
2023/09/07 03:06:12;;;;;;;;;;;;;;;;;;5092758;28;20010;-59
2023/09/07 03:08:38;;;;;;;;;;;;;;;;;;5090759;28;19915;-57
2023/09/07 03:11:04;;;;;;;;;;;;;;;;;;5078330;28;19920;-57
2023/09/07 03:13:30;;;;;;;;;;;;;;;;;;5077830;28;19997;-58
2023/09/07 03:15:56;;;;;;;;;;;;;;;;;;5088872;28;19916;-57
2023/09/07 03:18:22;;;;;;;;;;;;;;;;;;5079538;28;19963;-58
2023/09/07 03:20:48;;;;;;;;;;;;;;;;;;5073224;28;19967;-58
2023/09/07 03:23:14;;;;;;;;;;;;;;;;;;5073047;28;19917;-57
2023/09/07 03:25:40;;;;;;;;;;;;;;;;;;5075222;28;20453;-57
2023/09/07 03:28:06;;;;;;;;;;;;;;;;;;5081633;28;20003;-58
2023/09/07 03:30:32;;;;;;;;;;;;;;;;;;5075316;28;19970;-60
2023/09/07 03:32:58;;;;;;;;;;;;;;;;;;5089549;28;19916;-61
2023/09/07 03:35:24;;;;;;;;;;;;;;;;;;5077275;28;19962;-60
2023/09/07 03:37:49;;;;;;;;;;;;;;;;;;5090927;28;19912;-60
2023/09/07 03:40:15;;;;;;;;;;;;;;;;;;5092748;28;19908;-58
2023/09/07 03:42:43;;;;;;;;;;;;;;;;;;5078096;28;19955;-58
2023/09/07 03:45:09;;;;;;;;;;;;;;;;;;5073646;28;19924;-58
2023/09/07 03:47:35;;;;;;;;;;;;;;;;;;5086272;28;19997;-58
2023/09/07 03:50:01;;;;;;;;;;;;;;;;;;5072418;28;20388;-60
2023/09/07 03:52:27;;;;;;;;;;;;;;;;;;5087650;28;20425;-58
2023/09/07 03:54:52;;;;;;;;;;;;;;;;;;5082937;28;20015;-58
2023/09/07 03:57:19;;;;;;;;;;;;;;;;;;5072668;28;20043;-58
2023/09/07 03:59:45;;;;;;;;;;;;;;;;;;5084788;28;19917;-58
2023/09/07 04:02:11;;;;;;;;;;;;;;;;;;5088113;28;20428;-58
2023/09/07 04:04:37;;;;;;;;;;;;;;;;;;5073343;28;19926;-58
2023/09/07 04:07:03;;;;;;;;;;;;;;;;;;5080005;28;20296;-57
2023/09/07 04:09:29;;;;;;;;;;;;;;;;;;5078312;28;19916;-58
2023/09/07 04:11:55;;;;;;;;;;;;;;;;;;5078447;28;20315;-58
2023/09/07 04:14:20;;;;;;;;;;;;;;;;;;5079506;28;19916;-57
2023/09/07 04:16:46;;;;;;;;;;;;;;;;;;5086884;28;20109;-58
2023/09/07 04:19:12;;;;;;;;;;;;;;;;;;5077695;28;19957;-57
2023/09/07 04:21:38;;;;;;;;;;;;;;;;;;5076392;28;19970;-57
2023/09/07 04:24:04;;;;;;;;;;;;;;;;;;5078745;28;20133;-58
2023/09/07 04:26:30;;;;;;;;;;;;;;;;;;5076908;28;20003;-58
2023/09/07 04:28:56;;;;;;;;;;;;;;;;;;5072141;28;19912;-59
2023/09/07 04:31:24;;;;;;;;;;;;;;;;;;5083861;28;19958;-57
2023/09/07 04:33:50;;;;;;;;;;;;;;;;;;5084352;28;20086;-57
2023/09/07 04:36:16;;;;;;;;;;;;;;;;;;5085513;28;20027;-58
2023/09/07 04:38:42;;;;;;;;;;;;;;;;;;5084846;28;20035;-57
2023/09/07 04:41:08;;;;;;;;;;;;;;;;;;5074122;28;19944;-61
2023/09/07 04:43:33;;;;;;;;;;;;;;;;;;5073405;28;20552;-60
2023/09/07 04:45:59;;;;;;;;;;;;;;;;;;5084261;28;20358;-61
2023/09/07 04:48:25;;;;;;;;;;;;;;;;;;5083990;28;19912;-60
2023/09/07 04:50:51;;;;;;;;;;;;;;;;;;5081746;28;20867;-59
2023/09/07 04:53:17;;;;;;;;;;;;;;;;;;5085213;28;19912;-59
2023/09/07 04:55:43;;;;;;;;;;;;;;;;;;5079799;28;19919;-59
2023/09/07 04:58:09;;;;;;;;;;;;;;;;;;5083373;28;19999;-59
2023/09/07 05:00:35;;;;;;;;;;;;;;;;;;5080614;28;20382;-61
2023/09/07 05:03:02;;;;;;;;;;;;;;;;;;5073667;28;20005;-59
2023/09/07 05:05:28;;;;;;;;;;;;;;;;;;5093959;28;19969;-60
2023/09/07 05:07:54;;;;;;;;;;;;;;;;;;5084317;28;20513;-59
2023/09/07 05:10:20;;;;;;;;;;;;;;;;;;5079671;28;20347;-59
2023/09/07 05:12:46;;;;;;;;;;;;;;;;;;5083739;28;20391;-59
2023/09/07 05:15:12;;;;;;;;;;;;;;;;;;5079599;28;20375;-59
2023/09/07 05:17:38;;;;;;;;;;;;;;;;;;5078023;28;19959;-59
2023/09/07 05:20:04;;;;;;;;;;;;;;;;;;5085384;28;20000;-59
2023/09/07 05:22:30;;;;;;;;;;;;;;;;;;5080165;28;20368;-59
2023/09/07 05:24:56;;;;;;;;;;;;;;;;;;5082922;28;19916;-59
2023/09/07 05:27:22;;;;;;;;;;;;;;;;;;5086253;28;19912;-60
2023/09/07 05:29:48;;;;;;;;;;;;;;;;;;5075040;28;20406;-59
2023/09/07 05:32:14;;;;;;;;;;;;;;;;;;5073566;28;19913;-59
2023/09/07 05:34:40;;;;;;;;;;;;;;;;;;5084562;28;19916;-59
2023/09/07 05:37:06;;;;;;;;;;;;;;;;;;5077809;28;19926;-59
2023/09/07 05:39:32;;;;;;;;;;;;;;;;;;5094150;28;19908;-59
2023/09/07 05:41:58;;;;;;;;;;;;;;;;;;5080572;28;19931;-59
2023/09/07 05:44:24;;;;;;;;;;;;;;;;;;5073144;28;20347;-60
2023/09/07 05:46:49;;;;;;;;;;;;;;;;;;5075639;28;19913;-59
2023/09/07 05:49:15;;;;;;;;;;;;;;;;;;5073483;28;19912;-60
2023/09/07 05:51:41;;;;;;;;;;;;;;;;;;5079419;28;20002;-60
2023/09/07 05:54:07;;;;;;;;;;;;;;;;;;5075035;28;20312;-59
2023/09/07 05:56:34;;;;;;;;;;;;;;;;;;5073100;28;19917;-60
2023/09/07 05:59:00;;;;;;;;;;;;;;;;;;5073330;28;19981;-60
2023/09/07 06:01:26;;;;;;;;;;;;;;;;;;5074172;28;19995;-60
2023/09/07 06:03:51;;;;;;;;;;;;;;;;;;5089579;28;19912;-60
2023/09/07 06:06:17;;;;;;;;;;;;;;;;;;5079690;28;19994;-60
2023/09/07 06:08:43;;;;;;;;;;;;;;;;;;5088454;28;19913;-60
2023/09/07 06:11:09;;;;;;;;;;;;;;;;;;5093139;28;19913;-60
2023/09/07 06:13:35;;;;;;;;;;;;;;;;;;5076044;28;20426;-60
2023/09/07 06:16:02;;;;;;;;;;;;;;;;;;5073709;28;19908;-60
2023/09/07 06:18:28;;;;;;;;;;;;;;;;;;5093731;28;19923;-60
2023/09/07 06:20:54;;;;;;;;;;;;;;;;;;5092800;28;19920;-59
2023/09/07 06:23:20;;;;;;;;;;;;;;;;;;5093436;28;19912;-60
2023/09/07 06:25:46;;;;;;;;;;;;;;;;;;5092202;28;19966;-59
2023/09/07 06:28:12;;;;;;;;;;;;;;;;;;5076497;28;20376;-60
2023/09/07 06:30:38;;;;;;;;;;;;;;;;;;5079134;28;20372;-60
2023/09/07 06:33:04;;;;;;;;;;;;;;;;;;5073043;28;19908;-60
2023/09/07 06:35:30;;;;;;;;;;;;;;;;;;5072775;28;20004;-61
2023/09/07 06:37:56;;;;;;;;;;;;;;;;;;5073025;28;20003;-59
2023/09/07 06:40:22;;;;;;;;;;;;;;;;;;5082734;28;19918;-59
2023/09/07 06:42:48;;;;;;;;;;;;;;;;;;5087313;28;20315;-62
2023/09/07 06:45:14;;;;;;;;;;;;;;;;;;5086601;28;20355;-62
2023/09/07 06:47:40;;;;;;;;;;;;;;;;;;5080011;28;19919;-62
2023/09/07 06:50:05;;;;;;;;;;;;;;;;;;5092356;28;19936;-62
2023/09/07 06:52:31;;;;;;;;;;;;;;;;;;5092834;28;20329;-63
2023/09/07 06:54:57;;;;;;;;;;;;;;;;;;5079018;28;20008;-63
2023/09/07 06:57:23;;;;;;;;;;;;;;;;;;5091070;28;19912;-62
2023/09/07 06:59:49;;;;;;;;;;;;;;;;;;5090286;28;20287;-62
2023/09/07 07:02:15;;;;;;;;;;;;;;;;;;5084377;28;20007;-62
2023/09/07 07:04:41;;;;;;;;;;;;;;;;;;5074112;28;19919;-63
2023/09/07 07:07:07;;;;;;;;;;;;;;;;;;5083846;28;20302;-62
2023/09/07 07:09:33;;;;;;;;;;;;;;;;;;5071535;28;19912;-60
2023/09/07 07:12:00;;;;;;;;;;;;;;;;;;5072051;28;19912;-61
2023/09/07 07:14:26;;;;;;;;;;;;;;;;;;5078011;28;19912;-61
2023/09/07 07:16:52;;;;;;;;;;;;;;;;;;5075949;28;19979;-61
2023/09/07 07:19:17;;;;;;;;;;;;;;;;;;5077632;28;20002;-61
2023/09/07 07:21:44;;;;;;;;;;;;;;;;;;5092408;28;19928;-61
2023/09/07 07:24:10;;;;;;;;;;;;;;;;;;5087993;27;19919;-61
2023/09/07 07:26:35;;;;;;;;;;;;;;;;;;5080070;28;19986;-62
2023/09/07 07:29:02;;;;;;;;;;;;;;;;;;5092165;28;19957;-61
2023/09/07 07:31:29;;;;;;;;;;;;;;;;;;5091989;28;19908;-61
2023/09/07 07:33:55;;;;;;;;;;;;;;;;;;5076845;28;20015;-61
2023/09/07 07:36:21;;;;;;;;;;;;;;;;;;5071839;28;20383;-61
2023/09/07 07:38:47;;;;;;;;;;;;;;;;;;5071837;28;20007;-61
2023/09/07 07:41:13;;;;;;;;;;;;;;;;;;5079237;28;19947;-61
2023/09/07 07:43:38;;;;;;;;;;;;;;;;;;5071746;28;20025;-62
2023/09/07 07:46:04;;;;;;;;;;;;;;;;;;5071641;28;19919;-63
2023/09/07 07:48:30;;;;;;;;;;;;;;;;;;5071921;28;19913;-61
2023/09/07 07:50:56;;;;;;;;;;;;;;;;;;5080731;28;20368;-62
2023/09/07 07:53:23;;;;;;;;;;;;;;;;;;5071577;28;19930;-63
2023/09/07 07:55:49;;;;;;;;;;;;;;;;;;5071722;28;20371;-62
2023/09/07 07:58:15;;;;;;;;;;;;;;;;;;5072494;28;19951;-62
2023/09/07 08:00:43;;;;;;;;;;;;;;;;;;5084558;28;19908;-62
2023/09/07 08:03:09;;;;;;;;;;;;;;;;;;5071411;28;19908;-61
2023/09/07 08:05:35;;;;;;;;;;;;;;;;;;5074029;28;20009;-62
2023/09/07 08:08:01;;;;;;;;;;;;;;;;;;5074598;28;19931;-62
2023/09/07 08:10:27;;;;;;;;;;;;;;;;;;5071600;28;20351;-63
2023/09/07 08:12:53;;;;;;;;;;;;;;;;;;5071589;28;19908;-63
2023/09/07 08:15:21;;;;;;;;;;;;;;;;;;5082689;28;19951;-63
2023/09/07 08:17:47;;;;;;;;;;;;;;;;;;5079373;28;19927;-64
2023/09/07 08:20:13;;;;;;;;;;;;;;;;;;5084595;28;20288;-62
2023/09/07 08:22:41;;;;;;;;;;;;;;;;;;5075304;28;19944;-62
2023/09/07 08:25:07;;;;;;;;;;;;;;;;;;5087648;28;19920;-62
2023/09/07 08:27:33;;;;;;;;;;;;;;;;;;5075558;28;19993;-62
2023/09/07 08:29:59;;;;;;;;;;;;;;;;;;5076734;28;19912;-62
2023/09/07 08:32:25;;;;;;;;;;;;;;;;;;5079795;28;19956;-62
2023/09/07 08:34:56;;;;;;;;;;;;;;;;;;5075357;28;20011;-62
2023/09/07 08:37:22;;;;;;;;;;;;;;;;;;5087096;28;20016;-62
2023/09/07 08:39:48;;;;;;;;;;;;;;;;;;5079014;28;19919;-62
2023/09/07 08:42:14;;;;;;;;;;;;;;;;;;5081388;28;19909;-60
2023/09/07 08:44:40;;;;;;;;;;;;;;;;;;5087260;28;19968;-62
2023/09/07 08:47:06;;;;;;;;;;;;;;;;;;5089549;28;19999;-62
2023/09/07 08:49:32;;;;;;;;;;;;;;;;;;5087274;28;19959;-62
2023/09/07 08:51:58;;;;;;;;;;;;;;;;;;5081125;28;20341;-62
2023/09/07 08:54:24;;;;;;;;;;;;;;;;;;5085959;28;19918;-61
2023/09/07 08:56:50;;;;;;;;;;;;;;;;;;5088215;28;19912;-61
2023/09/07 08:59:16;;;;;;;;;;;;;;;;;;5079542;28;20012;-62
2023/09/07 09:01:42;;;;;;;;;;;;;;;;;;5081139;28;19915;-62
2023/09/07 09:04:08;;;;;;;;;;;;;;;;;;5087242;28;19909;-61
2023/09/07 09:06:34;;;;;;;;;;;;;;;;;;5081211;28;20391;-62
2023/09/07 09:09:00;;;;;;;;;;;;;;;;;;5077731;28;19919;-62
2023/09/07 09:11:27;;;;;;;;;;;;;;;;;;5092825;28;19919;-64
2023/09/07 09:13:53;;;;;;;;;;;;;;;;;;5094763;28;19980;-61
2023/09/07 09:16:19;;;;;;;;;;;;;;;;;;5078894;28;20110;-62
2023/09/07 09:18:45;;;;;;;;;;;;;;;;;;5086891;28;19961;-61
2023/09/07 09:21:11;;;;;;;;;;;;;;;;;;5077108;28;19928;-62
2023/09/07 09:23:37;;;;;;;;;;;;;;;;;;5086041;28;19960;-63
2023/09/07 09:26:04;;;;;;;;;;;;;;;;;;5074437;28;19917;-63
2023/09/07 09:28:31;;;;;;;;;;;;;;;;;;5087652;28;19912;-63
2023/09/07 09:30:57;;;;;;;;;;;;;;;;;;5078712;28;19978;-61
2023/09/07 09:33:23;;;;;;;;;;;;;;;;;;5084376;28;19963;-61
2023/09/07 09:35:50;;;;;;;;;;;;;;;;;;5086208;28;20298;-61
2023/09/07 09:38:16;;;;;;;;;;;;;;;;;;5076791;28;19912;-61
2023/09/07 09:40:42;;;;;;;;;;;;;;;;;;5090190;28;19962;-61
2023/09/07 09:43:08;;;;;;;;;;;;;;;;;;5082745;28;20368;-61
2023/09/07 09:45:35;;;;;;;;;;;;;;;;;;5086380;28;19912;-61
2023/09/07 09:48:01;;;;;;;;;;;;;;;;;;5087392;28;20266;-61
2023/09/07 09:50:27;;;;;;;;;;;;;;;;;;5085640;28;19934;-61
2023/09/07 09:52:53;;;;;;;;;;;;;;;;;;5087263;28;19908;-61
2023/09/07 09:55:19;;;;;;;;;;;;;;;;;;5078723;28;19920;-61
2023/09/07 09:57:45;;;;;;;;;;;;;;;;;;5077571;28;19920;-61
2023/09/07 10:02:43;;;;;;;;;;;;;;;;;;5078244;28;19919;-61
2023/09/07 10:05:09;;;;;;;;;;;;;;;;;;5090558;28;19912;-62
2023/09/07 10:07:35;;;;;;;;;;;;;;;;;;5089245;28;19920;-61
2023/09/07 10:10:01;;;;;;;;;;;;;;;;;;5080872;28;19972;-61
2023/09/07 10:12:27;;;;;;;;;;;;;;;;;;5085087;28;19916;-62
2023/09/07 10:14:55;;;;;;;;;;;;;;;;;;5080005;28;19921;-61
2023/09/07 10:17:21;;;;;;;;;;;;;;;;;;5072947;28;19920;-61
2023/09/07 10:19:51;;;;;;;;;;;;;;;;;;5085886;28;20024;-61
2023/09/07 10:22:17;;;;;;;;;;;;;;;;;;5089217;28;20375;-62
2023/09/07 10:24:46;;;;;;;;;;;;;;;;;;5090026;28;19960;-61
2023/09/07 10:27:12;;;;;;;;;;;;;;;;;;5081747;28;19999;-61
2023/09/07 10:29:38;;;;;;;;;;;;;;;;;;5089326;28;20006;-63
2023/09/07 10:32:04;;;;;;;;;;;;;;;;;;5081627;28;20076;-63
2023/09/07 10:34:30;;;;;;;;;;;;;;;;;;5083728;28;19920;-61
2023/09/07 10:36:56;;;;;;;;;;;;;;;;;;5087839;28;19908;-63
2023/09/07 10:39:22;;;;;;;;;;;;;;;;;;5074562;28;20409;-63
2023/09/07 10:41:48;;;;;;;;;;;;;;;;;;5075580;28;19908;-62
2023/09/07 10:44:14;;;;;;;;;;;;;;;;;;5079401;28;19919;-63
2023/09/07 10:46:39;;;;;;;;;;;;;;;;;;5087759;28;20385;-63
2023/09/07 10:49:05;;;;;;;;;;;;;;;;;;5079320;28;20379;-61
2023/09/07 10:51:31;;;;;;;;;;;;;;;;;;5081597;28;19999;-63
2023/09/07 10:53:57;;;;;;;;;;;;;;;;;;5078957;28;19908;-63
2023/09/07 10:56:23;;;;;;;;;;;;;;;;;;5087236;28;19919;-63
2023/09/07 10:58:51;;;;;;;;;;;;;;;;;;5085687;28;20013;-63
2023/09/07 11:01:17;;;;;;;;;;;;;;;;;;5080107;28;19923;-63
2023/09/07 11:03:43;;;;;;;;;;;;;;;;;;5079641;28;19912;-63
2023/09/07 11:06:09;;;;;;;;;;;;;;;;;;5088260;28;19939;-63
2023/09/07 11:08:34;;;;;;;;;;;;;;;;;;5086668;28;19962;-63
2023/09/07 11:11:00;;;;;;;;;;;;;;;;;;5085207;28;20349;-63
2023/09/07 11:13:26;;;;;;;;;;;;;;;;;;5087672;28;20348;-62
2023/09/07 11:15:52;;;;;;;;;;;;;;;;;;5080578;28;19999;-63
2023/09/07 11:18:18;;;;;;;;;;;;;;;;;;5072170;28;20276;-62
2023/09/07 11:20:44;;;;;;;;;;;;;;;;;;5080859;28;19920;-60
2023/09/07 11:23:10;;;;;;;;;;;;;;;;;;5074274;28;19924;-61
2023/09/07 11:25:36;;;;;;;;;;;;;;;;;;5080884;28;21952;-61
2023/09/07 11:28:02;;;;;;;;;;;;;;;;;;5083034;28;19916;-61
2023/09/07 11:30:29;;;;;;;;;;;;;;;;;;5086360;28;20391;-61
2023/09/07 11:32:55;;;;;;;;;;;;;;;;;;5081197;28;20269;-61
2023/09/07 11:35:21;;;;;;;;;;;;;;;;;;5072949;28;19923;-61
2023/09/07 11:37:47;;;;;;;;;;;;;;;;;;5080358;28;20364;-61
2023/09/07 11:40:14;;;;;;;;;;;;;;;;;;5072304;28;19944;-61
2023/09/07 11:42:39;;;;;;;;;;;;;;;;;;5081342;28;19936;-61
2023/09/07 11:45:05;;;;;;;;;;;;;;;;;;5082364;28;19954;-61
2023/09/07 11:47:31;;;;;;;;;;;;;;;;;;5078627;28;19920;-61
2023/09/07 11:49:57;;;;;;;;;;;;;;;;;;5080117;28;20348;-59
2023/09/07 11:52:23;;;;;;;;;;;;;;;;;;5085471;28;19922;-59
2023/09/07 11:54:49;;;;;;;;;;;;;;;;;;5079942;28;20002;-59
2023/09/07 11:57:16;;;;;;;;;;;;;;;;;;5078114;28;20275;-60
2023/09/07 11:59:41;;;;;;;;;;;;;;;;;;5091660;28;20043;-59
2023/09/07 12:02:10;;;;;;;;;;;;;;;;;;5079424;28;20002;-59
2023/09/07 12:04:37;;;;;;;;;;;;;;;;;;5077134;28;20007;-59
2023/09/07 12:07:03;;;;;;;;;;;;;;;;;;5084822;28;19912;-60
2023/09/07 12:09:29;;;;;;;;;;;;;;;;;;5071133;28;19909;-60
2023/09/07 12:11:55;;;;;;;;;;;;;;;;;;5082270;28;19936;-60
2023/09/07 12:14:22;;;;;;;;;;;;;;;;;;5083989;28;19991;-60
2023/09/07 12:16:48;;;;;;;;;;;;;;;;;;5079438;28;19908;-60
2023/09/07 12:19:14;;;;;;;;;;;;;;;;;;5087787;28;19912;-61
2023/09/07 12:21:41;;;;;;;;;;;;;;;;;;5071933;28;20372;-60
2023/09/07 12:24:07;;;;;;;;;;;;;;;;;;5073727;28;20355;-60
2023/09/07 12:26:33;;;;;;;;;;;;;;;;;;5084575;28;19927;-60
2023/09/07 12:29:00;;;;;;;;;;;;;;;;;;5084521;28;19912;-60
2023/09/07 12:31:26;;;;;;;;;;;;;;;;;;5077542;28;20447;-60
2023/09/07 12:33:52;;;;;;;;;;;;;;;;;;5091248;28;19955;-61
2023/09/07 12:36:18;;;;;;;;;;;;;;;;;;5076811;28;19913;-60
2023/09/07 12:38:43;;;;;;;;;;;;;;;;;;5079172;28;19954;-61
2023/09/07 12:41:09;;;;;;;;;;;;;;;;;;5073227;28;20432;-61
2023/09/07 12:43:35;;;;;;;;;;;;;;;;;;5088913;28;19916;-61
2023/09/07 12:46:01;;;;;;;;;;;;;;;;;;5077556;28;19916;-60
2023/09/07 12:48:27;;;;;;;;;;;;;;;;;;5084614;28;19947;-61
2023/09/07 12:50:53;;;;;;;;;;;;;;;;;;5085510;28;19912;-61
2023/09/07 12:53:19;;;;;;;;;;;;;;;;;;5086783;28;19999;-61
2023/09/07 12:55:45;;;;;;;;;;;;;;;;;;5071017;28;19916;-61
2023/09/07 12:58:11;;;;;;;;;;;;;;;;;;5083530;28;19951;-61
2023/09/07 13:00:37;;;;;;;;;;;;;;;;;;5082333;28;20386;-60
2023/09/07 13:03:03;;;;;;;;;;;;;;;;;;5070720;28;19909;-60
2023/09/07 13:05:29;;;;;;;;;;;;;;;;;;5081859;28;19931;-61
2023/09/07 13:07:56;;;;;;;;;;;;;;;;;;5081362;28;20349;-61
2023/09/07 13:10:21;;;;;;;;;;;;;;;;;;5076463;28;20329;-61
2023/09/07 13:12:47;;;;;;;;;;;;;;;;;;5083358;28;19918;-61
2023/09/07 13:15:13;;;;;;;;;;;;;;;;;;5085527;28;19908;-61
2023/09/07 13:17:39;;;;;;;;;;;;;;;;;;5082043;28;20275;-61
2023/09/07 13:20:05;;;;;;;;;;;;;;;;;;5080651;28;19928;-61
2023/09/07 13:22:31;;;;;;;;;;;;;;;;;;5087706;28;19955;-61
2023/09/07 13:24:57;;;;;;;;;;;;;;;;;;5077877;28;19917;-61
2023/09/07 13:27:25;;;;;;;;;;;;;;;;;;5086105;28;19998;-60
2023/09/07 13:29:51;;;;;;;;;;;;;;;;;;5078833;28;19971;-61
2023/09/07 13:32:18;;;;;;;;;;;;;;;;;;5081028;28;19947;-61
2023/09/07 13:34:44;;;;;;;;;;;;;;;;;;5075225;28;19986;-61
2023/09/07 13:37:10;;;;;;;;;;;;;;;;;;5082793;28;20360;-61
2023/09/07 13:39:36;;;;;;;;;;;;;;;;;;5087099;28;20074;-61
2023/09/07 13:42:01;;;;;;;;;;;;;;;;;;5083883;28;20261;-61
2023/09/07 13:44:27;;;;;;;;;;;;;;;;;;5088206;28;19913;-61
2023/09/07 13:46:54;;;;;;;;;;;;;;;;;;5085289;28;20031;-61
2023/09/07 13:49:20;;;;;;;;;;;;;;;;;;5084602;28;19916;-60
2023/09/07 13:51:46;;;;;;;;;;;;;;;;;;5074745;28;19913;-61
2023/09/07 13:54:12;;;;;;;;;;;;;;;;;;5079603;28;19916;-61
2023/09/07 13:56:38;;;;;;;;;;;;;;;;;;5075439;28;19980;-61
2023/09/07 13:59:04;;;;;;;;;;;;;;;;;;5086949;28;20003;-61
2023/09/07 14:01:30;;;;;;;;;;;;;;;;;;5086279;28;20369;-62
2023/09/07 14:03:56;;;;;;;;;;;;;;;;;;5085725;28;19962;-62
2023/09/07 14:06:23;;;;;;;;;;;;;;;;;;5076770;28;20364;-62
2023/09/07 14:08:51;;;;;;;;;;;;;;;;;;5077504;28;20057;-62
2023/09/07 14:11:16;;;;;;;;;;;;;;;;;;5081039;28;19912;-59
2023/09/07 14:13:42;;;;;;;;;;;;;;;;;;5088561;28;19923;-59
2023/09/07 14:16:10;;;;;;;;;;;;;;;;;;5078327;28;20392;-59
2023/09/07 14:18:36;;;;;;;;;;;;;;;;;;5082648;28;19916;-59
2023/09/07 14:21:02;;;;;;;;;;;;;;;;;;5075056;28;19959;-59
2023/09/07 14:23:28;;;;;;;;;;;;;;;;;;5078416;28;19934;-60
2023/09/07 14:25:54;;;;;;;;;;;;;;;;;;5078593;28;19916;-60
2023/09/07 14:28:19;;;;;;;;;;;;;;;;;;5081898;28;19948;-59
2023/09/07 14:30:45;;;;;;;;;;;;;;;;;;5077474;28;19944;-59
2023/09/07 14:33:11;;;;;;;;;;;;;;;;;;5077287;28;19999;-58
2023/09/07 14:35:37;;;;;;;;;;;;;;;;;;5085255;28;19920;-58
2023/09/07 14:38:03;;;;;;;;;;;;;;;;;;5082282;28;19919;-59
2023/09/07 14:40:29;;;;;;;;;;;;;;;;;;5077737;28;19951;-58
2023/09/07 14:42:57;;;;;;;;;;;;;;;;;;5080950;28;20371;-59
2023/09/07 14:45:23;;;;;;;;;;;;;;;;;;5078015;28;19919;-58
2023/09/07 14:47:49;;;;;;;;;;;;;;;;;;5084080;28;20309;-59
2023/09/07 14:50:15;;;;;;;;;;;;;;;;;;5078249;28;20011;-59
2023/09/07 14:52:41;;;;;;;;;;;;;;;;;;5077957;28;19954;-59
2023/09/07 14:55:07;;;;;;;;;;;;;;;;;;5073734;28;20314;-61
2023/09/07 14:57:33;;;;;;;;;;;;;;;;;;5082005;28;19927;-58
2023/09/07 14:59:59;;;;;;;;;;;;;;;;;;5076891;28;19912;-59
2023/09/07 15:02:25;;;;;;;;;;;;;;;;;;5079396;28;19955;-59
2023/09/07 15:04:51;;;;;;;;;;;;;;;;;;5084924;28;19951;-59
2023/09/07 15:07:18;;;;;;;;;;;;;;;;;;5075161;28;20279;-58
2023/09/07 15:09:44;;;;;;;;;;;;;;;;;;5081570;28;19981;-58
2023/09/07 15:12:10;;;;;;;;;;;;;;;;;;5085734;28;19959;-58
2023/09/07 15:14:36;;;;;;;;;;;;;;;;;;5084121;28;19923;-60
2023/09/07 15:17:02;;;;;;;;;;;;;;;;;;5079384;28;20352;-58
2023/09/07 15:19:30;;;;;;;;;;;;;;;;;;5075482;28;19943;-58
2023/09/07 15:21:56;;;;;;;;;;;;;;;;;;5077634;28;19928;-60
2023/09/07 15:24:21;;;;;;;;;;;;;;;;;;5077763;28;19946;-59
2023/09/07 15:26:47;;;;;;;;;;;;;;;;;;5082605;28;19932;-58
2023/09/07 15:29:14;;;;;;;;;;;;;;;;;;5076947;28;19978;-60
2023/09/07 15:31:40;;;;;;;;;;;;;;;;;;5075195;28;20396;-58
2023/09/07 15:34:05;;;;;;;;;;;;;;;;;;5078771;28;19972;-58
2023/09/07 15:36:34;;;;;;;;;;;;;;;;;;5073464;28;20062;-59
2023/09/07 15:39:00;;;;;;;;;;;;;;;;;;5072630;28;19924;-60
2023/09/07 15:41:26;;;;;;;;;;;;;;;;;;5082415;28;19916;-58
2023/09/07 15:43:53;;;;;;;;;;;;;;;;;;5082121;28;19912;-58
2023/09/07 15:46:19;;;;;;;;;;;;;;;;;;5074173;28;19917;-58
2023/09/07 15:48:45;;;;;;;;;;;;;;;;;;5081048;28;19916;-59
2023/09/07 15:51:11;;;;;;;;;;;;;;;;;;5077857;28;20386;-58
2023/09/07 15:53:37;;;;;;;;;;;;;;;;;;5079829;28;19916;-58
2023/09/07 15:56:03;;;;;;;;;;;;;;;;;;5077680;28;19926;-59
2023/09/07 15:58:29;;;;;;;;;;;;;;;;;;5086105;28;19934;-58
2023/09/07 16:00:55;;;;;;;;;;;;;;;;;;5082016;28;19987;-58
2023/09/07 16:03:21;;;;;;;;;;;;;;;;;;5077644;28;19920;-58
2023/09/07 16:05:46;;;;;;;;;;;;;;;;;;5075303;28;19958;-58
2023/09/07 16:08:12;;;;;;;;;;;;;;;;;;5083377;28;19968;-58
2023/09/07 16:10:39;;;;;;;;;;;;;;;;;;5082403;28;19919;-60
2023/09/07 16:13:05;;;;;;;;;;;;;;;;;;5082854;28;19966;-58
2023/09/07 16:15:30;;;;;;;;;;;;;;;;;;5081684;28;19956;-58
2023/09/07 16:17:56;;;;;;;;;;;;;;;;;;5076645;28;19916;-58
2023/09/07 16:20:22;;;;;;;;;;;;;;;;;;5072931;28;20054;-62
2023/09/07 16:22:48;;;;;;;;;;;;;;;;;;5075431;28;19922;-61
2023/09/07 16:25:14;;;;;;;;;;;;;;;;;;5079607;28;20384;-61
2023/09/07 16:27:41;;;;;;;;;;;;;;;;;;5077939;28;19912;-61
2023/09/07 16:30:07;;;;;;;;;;;;;;;;;;5078096;28;20394;-61
2023/09/07 16:32:33;;;;;;;;;;;;;;;;;;5081046;28;19966;-61
2023/09/07 16:34:59;;;;;;;;;;;;;;;;;;5075781;28;20406;-61
2023/09/07 16:37:26;;;;;;;;;;;;;;;;;;5070527;28;19920;-61
2023/09/07 16:39:52;;;;;;;;;;;;;;;;;;5076816;28;19917;-61